sensor_id;sensor_type;location;lat;lon;timestamp;temperature;humidity
480;DHT22;226;48.606;9.096;2022-11-04T00:01:38;11.00;98.50
480;DHT22;226;48.606;9.096;2022-11-04T00:04:06;11.10;98.70
480;DHT22;226;48.606;9.096;2022-11-04T00:06:35;10.70;99.10
480;DHT22;226;48.606;9.096;2022-11-04T00:09:06;11.00;98.60
480;DHT22;226;48.606;9.096;2022-11-04T00:11:34;12.00;98.90
480;DHT22;226;48.606;9.096;2022-11-04T00:14:20;11.90;98.80
480;DHT22;226;48.606;9.096;2022-11-04T00:16:49;11.60;99.20
480;DHT22;226;48.606;9.096;2022-11-04T00:19:34;11.40;98.40
480;DHT22;226;48.606;9.096;2022-11-04T00:22:16;10.90;96.90
480;DHT22;226;48.606;9.096;2022-11-04T00:25:04;11.40;97.40
480;DHT22;226;48.606;9.096;2022-11-04T00:27:50;10.80;98.60
480;DHT22;226;48.606;9.096;2022-11-04T00:30:36;10.60;96.30
480;DHT22;226;48.606;9.096;2022-11-04T00:33:04;10.70;97.50
480;DHT22;226;48.606;9.096;2022-11-04T00:35:49;10.60;96.30
480;DHT22;226;48.606;9.096;2022-11-04T00:38:17;10.10;98.50
480;DHT22;226;48.606;9.096;2022-11-04T00:40:47;10.60;98.40
480;DHT22;226;48.606;9.096;2022-11-04T00:45:43;10.50;97.40
480;DHT22;226;48.606;9.096;2022-11-04T00:48:11;10.70;99.90
480;DHT22;226;48.606;9.096;2022-11-04T00:50:40;10.70;98.90
480;DHT22;226;48.606;9.096;2022-11-04T00:55:37;10.70;97.60
480;DHT22;226;48.606;9.096;2022-11-04T00:58:06;11.50;99.60
480;DHT22;226;48.606;9.096;2022-11-04T01:00:34;10.80;99.30
480;DHT22;226;48.606;9.096;2022-11-04T01:03:02;10.70;99.10
480;DHT22;226;48.606;9.096;2022-11-04T01:05:31;10.70;98.90
480;DHT22;226;48.606;9.096;2022-11-04T01:07:58;11.10;99.00
480;DHT22;226;48.606;9.096;2022-11-04T01:10:26;10.70;97.80
480;DHT22;226;48.606;9.096;2022-11-04T01:12:54;10.70;97.70
480;DHT22;226;48.606;9.096;2022-11-04T01:17:52;10.60;97.10
480;DHT22;226;48.606;9.096;2022-11-04T01:20:20;10.50;99.40
480;DHT22;226;48.606;9.096;2022-11-04T01:22:48;11.90;99.90
480;DHT22;226;48.606;9.096;2022-11-04T01:25:16;11.30;99.90
480;DHT22;226;48.606;9.096;2022-11-04T01:27:44;10.90;99.70
480;DHT22;226;48.606;9.096;2022-11-04T01:30:12;11.80;99.20
480;DHT22;226;48.606;9.096;2022-11-04T01:32:42;10.70;97.70
480;DHT22;226;48.606;9.096;2022-11-04T01:37:38;10.70;98.90
480;DHT22;226;48.606;9.096;2022-11-04T01:40:07;10.70;99.40
480;DHT22;226;48.606;9.096;2022-11-04T01:42:35;10.80;97.80
480;DHT22;226;48.606;9.096;2022-11-04T01:45:07;10.60;97.80
480;DHT22;226;48.606;9.096;2022-11-04T01:47:39;10.70;97.80
480;DHT22;226;48.606;9.096;2022-11-04T01:50:11;11.40;99.20
480;DHT22;226;48.606;9.096;2022-11-04T01:52:43;10.70;98.30
480;DHT22;226;48.606;9.096;2022-11-04T01:55:15;10.50;98.60
480;DHT22;226;48.606;9.096;2022-11-04T01:57:47;10.90;99.30
480;DHT22;226;48.606;9.096;2022-11-04T02:00:16;10.50;99.10
480;DHT22;226;48.606;9.096;2022-11-04T02:02:56;10.70;99.00
480;DHT22;226;48.606;9.096;2022-11-04T02:05:29;11.30;98.20
480;DHT22;226;48.606;9.096;2022-11-04T02:07:57;10.40;97.80
480;DHT22;226;48.606;9.096;2022-11-04T02:10:29;10.30;97.10
480;DHT22;226;48.606;9.096;2022-11-04T02:12:59;11.00;97.90
480;DHT22;226;48.606;9.096;2022-11-04T02:15:34;10.70;97.90
480;DHT22;226;48.606;9.096;2022-11-04T02:18:12;10.20;97.40
480;DHT22;226;48.606;9.096;2022-11-04T02:20:58;10.20;97.20
480;DHT22;226;48.606;9.096;2022-11-04T02:23:54;10.20;98.00
480;DHT22;226;48.606;9.096;2022-11-04T02:26:50;10.30;98.30
480;DHT22;226;48.606;9.096;2022-11-04T02:29:44;10.30;96.20
480;DHT22;226;48.606;9.096;2022-11-04T02:32:20;10.20;95.40
480;DHT22;226;48.606;9.096;2022-11-04T02:34:56;10.50;98.70
480;DHT22;226;48.606;9.096;2022-11-04T02:37:32;10.90;99.40
480;DHT22;226;48.606;9.096;2022-11-04T02:40:11;10.60;96.90
480;DHT22;226;48.606;9.096;2022-11-04T02:42:50;10.10;96.70
480;DHT22;226;48.606;9.096;2022-11-04T02:45:25;10.70;97.00
480;DHT22;226;48.606;9.096;2022-11-04T02:48:00;9.90;97.10
480;DHT22;226;48.606;9.096;2022-11-04T02:50:33;10.70;97.50
480;DHT22;226;48.606;9.096;2022-11-04T02:53:08;10.30;96.60
480;DHT22;226;48.606;9.096;2022-11-04T02:55:42;9.80;96.50
480;DHT22;226;48.606;9.096;2022-11-04T02:58:16;9.80;97.00
480;DHT22;226;48.606;9.096;2022-11-04T03:00:47;10.70;95.20
480;DHT22;226;48.606;9.096;2022-11-04T03:51:10;9.40;97.90
480;DHT22;226;48.606;9.096;2022-11-04T03:58:57;9.20;99.90
480;DHT22;226;48.606;9.096;2022-11-04T04:01:38;10.30;99.90
480;DHT22;226;48.606;9.096;2022-11-04T04:06:43;9.20;99.90
480;DHT22;226;48.606;9.096;2022-11-04T04:14:20;9.10;99.40
480;DHT22;226;48.606;9.096;2022-11-04T04:17:07;9.10;98.90
480;DHT22;226;48.606;9.096;2022-11-04T04:37:47;8.40;99.90
480;DHT22;226;48.606;9.096;2022-11-04T04:40:18;8.50;99.90
480;DHT22;226;48.606;9.096;2022-11-04T04:43:07;8.50;99.90
480;DHT22;226;48.606;9.096;2022-11-04T04:45:55;9.10;99.90
480;DHT22;226;48.606;9.096;2022-11-04T04:48:25;8.50;99.90
480;DHT22;226;48.606;9.096;2022-11-04T04:50:55;8.50;99.90
480;DHT22;226;48.606;9.096;2022-11-04T04:55:55;8.60;99.90
480;DHT22;226;48.606;9.096;2022-11-04T04:58:23;8.60;99.90
480;DHT22;226;48.606;9.096;2022-11-04T05:00:51;8.60;99.90
480;DHT22;226;48.606;9.096;2022-11-04T05:05:49;8.60;99.90
480;DHT22;226;48.606;9.096;2022-11-04T05:08:21;8.60;99.90
480;DHT22;226;48.606;9.096;2022-11-04T05:10:49;8.60;99.90
480;DHT22;226;48.606;9.096;2022-11-04T05:15:56;8.40;99.60
480;DHT22;226;48.606;9.096;2022-11-04T05:18:24;8.20;99.90
480;DHT22;226;48.606;9.096;2022-11-04T05:20:53;8.00;99.90
480;DHT22;226;48.606;9.096;2022-11-04T05:25:50;8.00;99.90
480;DHT22;226;48.606;9.096;2022-11-04T05:28:18;8.20;99.90
480;DHT22;226;48.606;9.096;2022-11-04T05:30:46;8.00;99.90
480;DHT22;226;48.606;9.096;2022-11-04T05:35:42;8.10;99.90
480;DHT22;226;48.606;9.096;2022-11-04T05:38:11;8.20;99.90
480;DHT22;226;48.606;9.096;2022-11-04T05:40:39;8.30;99.90
480;DHT22;226;48.606;9.096;2022-11-04T05:43:07;8.10;99.90
480;DHT22;226;48.606;9.096;2022-11-04T05:45:35;8.00;99.90
480;DHT22;226;48.606;9.096;2022-11-04T05:48:04;8.20;99.90
480;DHT22;226;48.606;9.096;2022-11-04T05:50:32;8.10;99.90
480;DHT22;226;48.606;9.096;2022-11-04T05:53:00;8.10;99.90
480;DHT22;226;48.606;9.096;2022-11-04T05:55:30;8.10;99.90
480;DHT22;226;48.606;9.096;2022-11-04T05:57:58;8.10;99.90
480;DHT22;226;48.606;9.096;2022-11-04T06:00:27;8.10;99.90
480;DHT22;226;48.606;9.096;2022-11-04T06:02:55;7.30;99.90
480;DHT22;226;48.606;9.096;2022-11-04T06:05:24;8.00;99.90
480;DHT22;226;48.606;9.096;2022-11-04T06:07:52;7.90;99.90
480;DHT22;226;48.606;9.096;2022-11-04T06:10:20;8.00;99.90
480;DHT22;226;48.606;9.096;2022-11-04T06:12:50;8.00;99.90
480;DHT22;226;48.606;9.096;2022-11-04T06:15:18;8.00;99.90
480;DHT22;226;48.606;9.096;2022-11-04T06:17:46;7.90;99.90
480;DHT22;226;48.606;9.096;2022-11-04T06:20:14;7.90;99.90
480;DHT22;226;48.606;9.096;2022-11-04T06:22:42;7.90;99.90
480;DHT22;226;48.606;9.096;2022-11-04T06:25:10;7.20;99.90
480;DHT22;226;48.606;9.096;2022-11-04T06:27:38;7.80;99.90
480;DHT22;226;48.606;9.096;2022-11-04T06:30:11;7.80;99.90
480;DHT22;226;48.606;9.096;2022-11-04T06:32:39;7.80;99.90
480;DHT22;226;48.606;9.096;2022-11-04T06:35:08;7.80;99.90
480;DHT22;226;48.606;9.096;2022-11-04T06:37:36;7.80;99.90
480;DHT22;226;48.606;9.096;2022-11-04T06:40:05;8.40;99.90
480;DHT22;226;48.606;9.096;2022-11-04T06:45:02;7.90;99.90
480;DHT22;226;48.606;9.096;2022-11-04T06:47:32;8.00;99.90
480;DHT22;226;48.606;9.096;2022-11-04T06:50:00;7.90;99.90
480;DHT22;226;48.606;9.096;2022-11-04T06:52:28;7.90;99.90
480;DHT22;226;48.606;9.096;2022-11-04T06:54:56;7.80;99.90
480;DHT22;226;48.606;9.096;2022-11-04T06:57:24;8.00;99.90
480;DHT22;226;48.606;9.096;2022-11-04T06:59:52;8.10;99.90
480;DHT22;226;48.606;9.096;2022-11-04T07:04:52;7.50;99.90
480;DHT22;226;48.606;9.096;2022-11-04T07:07:20;7.50;99.90
480;DHT22;226;48.606;9.096;2022-11-04T07:09:48;7.40;99.90
480;DHT22;226;48.606;9.096;2022-11-04T07:12:16;7.50;99.90
480;DHT22;226;48.606;9.096;2022-11-04T07:14:44;7.50;99.90
480;DHT22;226;48.606;9.096;2022-11-04T07:17:12;7.50;99.90
480;DHT22;226;48.606;9.096;2022-11-04T07:19:40;8.20;99.90
480;DHT22;226;48.606;9.096;2022-11-04T07:22:09;7.30;99.90
480;DHT22;226;48.606;9.096;2022-11-04T07:24:37;7.50;99.90
480;DHT22;226;48.606;9.096;2022-11-04T07:29:34;7.60;99.90
480;DHT22;226;48.606;9.096;2022-11-04T07:32:03;7.50;99.90
480;DHT22;226;48.606;9.096;2022-11-04T07:34:31;7.50;99.90
480;DHT22;226;48.606;9.096;2022-11-04T07:36:59;7.50;99.90
480;DHT22;226;48.606;9.096;2022-11-04T07:39:28;7.40;99.90
480;DHT22;226;48.606;9.096;2022-11-04T07:41:56;7.30;99.90
480;DHT22;226;48.606;9.096;2022-11-04T07:44:25;7.70;99.90
480;DHT22;226;48.606;9.096;2022-11-04T07:46:53;7.80;99.90
480;DHT22;226;48.606;9.096;2022-11-04T07:49:22;8.20;99.90
480;DHT22;226;48.606;9.096;2022-11-04T07:51:51;8.10;99.90
480;DHT22;226;48.606;9.096;2022-11-04T07:54:19;8.20;99.90
480;DHT22;226;48.606;9.096;2022-11-04T07:56:48;8.30;99.90
480;DHT22;226;48.606;9.096;2022-11-04T07:59:16;8.40;99.90
480;DHT22;226;48.606;9.096;2022-11-04T08:01:44;8.40;99.90
480;DHT22;226;48.606;9.096;2022-11-04T08:04:12;7.70;99.90
480;DHT22;226;48.606;9.096;2022-11-04T08:06:40;9.40;99.90
480;DHT22;226;48.606;9.096;2022-11-04T08:09:08;8.40;99.90
480;DHT22;226;48.606;9.096;2022-11-04T08:11:36;8.50;99.70
480;DHT22;226;48.606;9.096;2022-11-04T08:14:05;8.70;99.90
480;DHT22;226;48.606;9.096;2022-11-04T08:16:33;8.80;98.90
480;DHT22;226;48.606;9.096;2022-11-04T08:19:01;9.40;98.80
480;DHT22;226;48.606;9.096;2022-11-04T08:21:31;9.00;97.70
480;DHT22;226;48.606;9.096;2022-11-04T08:23:59;9.10;97.20
480;DHT22;226;48.606;9.096;2022-11-04T08:26:29;9.20;97.10
480;DHT22;226;48.606;9.096;2022-11-04T08:28:57;10.60;96.80
480;DHT22;226;48.606;9.096;2022-11-04T08:31:29;9.30;96.50
480;DHT22;226;48.606;9.096;2022-11-04T08:33:58;9.80;97.40
480;DHT22;226;48.606;9.096;2022-11-04T08:36:29;9.40;96.60
480;DHT22;226;48.606;9.096;2022-11-04T08:38:57;9.50;97.40
480;DHT22;226;48.606;9.096;2022-11-04T08:41:29;9.90;97.20
480;DHT22;226;48.606;9.096;2022-11-04T08:43:58;9.80;96.50
480;DHT22;226;48.606;9.096;2022-11-04T08:46:30;9.90;95.80
480;DHT22;226;48.606;9.096;2022-11-04T08:48:58;10.00;93.80
480;DHT22;226;48.606;9.096;2022-11-04T09:29:11;11.20;87.30
480;DHT22;226;48.606;9.096;2022-11-04T09:31:40;11.00;87.00
480;DHT22;226;48.606;9.096;2022-11-04T09:34:10;11.30;85.20
480;DHT22;226;48.606;9.096;2022-11-04T09:36:38;11.20;82.80
480;DHT22;226;48.606;9.096;2022-11-04T09:39:06;11.20;84.50
480;DHT22;226;48.606;9.096;2022-11-04T09:41:53;11.30;82.00
480;DHT22;226;48.606;9.096;2022-11-04T09:44:26;11.50;79.60
480;DHT22;226;48.606;9.096;2022-11-04T09:46:58;12.50;84.20
480;DHT22;226;48.606;9.096;2022-11-04T09:49:32;11.60;77.10
480;DHT22;226;48.606;9.096;2022-11-04T09:52:05;12.50;78.60
480;DHT22;226;48.606;9.096;2022-11-04T09:54:39;11.80;77.20
480;DHT22;226;48.606;9.096;2022-11-04T09:57:16;12.60;79.60
480;DHT22;226;48.606;9.096;2022-11-04T09:59:47;12.30;76.60
480;DHT22;226;48.606;9.096;2022-11-04T10:02:38;12.10;77.40
480;DHT22;226;48.606;9.096;2022-11-04T11:04:26;12.20;71.60
480;DHT22;226;48.606;9.096;2022-11-04T12:22:57;12.30;68.80
480;DHT22;226;48.606;9.096;2022-11-04T16:03:20;10.30;89.20
480;DHT22;226;48.606;9.096;2022-11-04T16:06:00;10.70;72.00
480;DHT22;226;48.606;9.096;2022-11-04T16:08:30;11.20;75.70
480;DHT22;226;48.606;9.096;2022-11-04T16:11:13;9.80;78.00
480;DHT22;226;48.606;9.096;2022-11-04T16:13:42;9.50;83.60
480;DHT22;226;48.606;9.096;2022-11-04T16:16:28;10.00;83.60
480;DHT22;226;48.606;9.096;2022-11-04T16:18:57;9.80;82.60
480;DHT22;226;48.606;9.096;2022-11-04T16:21:27;9.90;86.50
480;DHT22;226;48.606;9.096;2022-11-04T16:23:58;9.20;88.50
480;DHT22;226;48.606;9.096;2022-11-04T16:26:30;9.60;89.40
480;DHT22;226;48.606;9.096;2022-11-04T16:29:00;9.80;88.00
480;DHT22;226;48.606;9.096;2022-11-04T16:31:33;9.50;88.90
480;DHT22;226;48.606;9.096;2022-11-04T16:34:01;8.90;90.00
480;DHT22;226;48.606;9.096;2022-11-04T16:36:29;8.90;90.30
480;DHT22;226;48.606;9.096;2022-11-04T16:39:03;9.60;90.90
480;DHT22;226;48.606;9.096;2022-11-04T16:41:36;10.20;90.30
480;DHT22;226;48.606;9.096;2022-11-04T16:44:14;9.30;85.60
480;DHT22;226;48.606;9.096;2022-11-04T16:46:44;10.00;85.40
480;DHT22;226;48.606;9.096;2022-11-04T16:49:13;9.40;87.70
480;DHT22;226;48.606;9.096;2022-11-04T16:51:42;9.50;88.40
480;DHT22;226;48.606;9.096;2022-11-04T16:54:10;8.80;91.10
480;DHT22;226;48.606;9.096;2022-11-04T16:56:39;9.40;91.80
480;DHT22;226;48.606;9.096;2022-11-04T16:59:08;9.10;91.90
480;DHT22;226;48.606;9.096;2022-11-04T17:01:37;9.80;91.70
480;DHT22;226;48.606;9.096;2022-11-04T17:04:06;9.10;90.90
480;DHT22;226;48.606;9.096;2022-11-04T17:06:34;9.30;91.10
480;DHT22;226;48.606;9.096;2022-11-04T17:09:05;9.50;91.60
480;DHT22;226;48.606;9.096;2022-11-04T17:11:33;10.30;90.20
480;DHT22;226;48.606;9.096;2022-11-04T17:14:02;9.40;89.50
480;DHT22;226;48.606;9.096;2022-11-04T17:16:30;9.80;89.80
480;DHT22;226;48.606;9.096;2022-11-04T17:18:58;9.90;86.70
480;DHT22;226;48.606;9.096;2022-11-04T17:21:26;10.80;87.30
480;DHT22;226;48.606;9.096;2022-11-04T17:23:55;9.10;90.00
480;DHT22;226;48.606;9.096;2022-11-04T17:26:22;9.10;90.10
480;DHT22;226;48.606;9.096;2022-11-04T17:28:50;9.70;90.90
480;DHT22;226;48.606;9.096;2022-11-04T17:31:20;9.60;91.40
480;DHT22;226;48.606;9.096;2022-11-04T17:33:48;9.50;88.30
480;DHT22;226;48.606;9.096;2022-11-04T17:36:17;10.50;85.40
480;DHT22;226;48.606;9.096;2022-11-04T17:38:46;10.90;83.70
480;DHT22;226;48.606;9.096;2022-11-04T17:41:14;10.80;84.40
480;DHT22;226;48.606;9.096;2022-11-04T17:44:00;9.40;82.80
480;DHT22;226;48.606;9.096;2022-11-04T17:46:31;9.80;84.10
480;DHT22;226;48.606;9.096;2022-11-04T17:49:11;9.80;86.70
480;DHT22;226;48.606;9.096;2022-11-04T17:51:41;10.00;86.60
480;DHT22;226;48.606;9.096;2022-11-04T17:54:09;9.20;89.40
480;DHT22;226;48.606;9.096;2022-11-04T17:56:38;9.90;90.50
480;DHT22;226;48.606;9.096;2022-11-04T17:59:07;10.00;88.80
480;DHT22;226;48.606;9.096;2022-11-04T18:01:36;9.60;88.30
480;DHT22;226;48.606;9.096;2022-11-04T18:04:05;9.30;90.40
480;DHT22;226;48.606;9.096;2022-11-04T18:06:34;9.60;91.00
480;DHT22;226;48.606;9.096;2022-11-04T18:09:05;10.40;90.80
480;DHT22;226;48.606;9.096;2022-11-04T18:11:36;9.70;90.20
480;DHT22;226;48.606;9.096;2022-11-04T18:14:21;9.40;89.50
480;DHT22;226;48.606;9.096;2022-11-04T18:16:51;10.00;89.00
480;DHT22;226;48.606;9.096;2022-11-04T18:19:21;9.80;89.40
480;DHT22;226;48.606;9.096;2022-11-04T18:21:49;9.60;89.70
480;DHT22;226;48.606;9.096;2022-11-04T18:24:17;9.40;88.20
480;DHT22;226;48.606;9.096;2022-11-04T18:26:46;10.00;88.60
480;DHT22;226;48.606;9.096;2022-11-04T18:29:14;10.00;89.60
480;DHT22;226;48.606;9.096;2022-11-04T18:31:43;9.90;89.10
480;DHT22;226;48.606;9.096;2022-11-04T18:34:17;9.50;88.40
480;DHT22;226;48.606;9.096;2022-11-04T18:36:46;10.40;87.50
480;DHT22;226;48.606;9.096;2022-11-04T18:39:16;9.80;88.90
480;DHT22;226;48.606;9.096;2022-11-04T18:41:44;10.50;88.80
480;DHT22;226;48.606;9.096;2022-11-04T18:44:14;9.40;89.20
480;DHT22;226;48.606;9.096;2022-11-04T18:46:43;9.80;90.00
480;DHT22;226;48.606;9.096;2022-11-04T18:49:12;10.30;90.10
480;DHT22;226;48.606;9.096;2022-11-04T18:51:42;10.30;90.30
480;DHT22;226;48.606;9.096;2022-11-04T18:54:11;9.00;91.50
480;DHT22;226;48.606;9.096;2022-11-04T18:56:40;9.50;92.10
480;DHT22;226;48.606;9.096;2022-11-04T18:59:09;9.60;92.60
480;DHT22;226;48.606;9.096;2022-11-04T19:01:38;9.60;93.00
480;DHT22;226;48.606;9.096;2022-11-04T19:04:07;9.00;92.10
480;DHT22;226;48.606;9.096;2022-11-04T19:06:39;9.40;92.00
480;DHT22;226;48.606;9.096;2022-11-04T19:09:11;10.20;92.90
480;DHT22;226;48.606;9.096;2022-11-04T19:11:59;10.50;93.20
480;DHT22;226;48.606;9.096;2022-11-04T19:14:44;9.30;92.30
480;DHT22;226;48.606;9.096;2022-11-04T19:17:12;9.70;91.60
480;DHT22;226;48.606;9.096;2022-11-04T19:19:41;9.70;90.60
480;DHT22;226;48.606;9.096;2022-11-04T19:22:09;9.90;90.30
480;DHT22;226;48.606;9.096;2022-11-04T19:24:38;9.20;91.10
480;DHT22;226;48.606;9.096;2022-11-04T19:27:06;9.60;91.70
480;DHT22;226;48.606;9.096;2022-11-04T19:29:34;9.30;91.70
480;DHT22;226;48.606;9.096;2022-11-04T19:32:03;10.60;91.50
480;DHT22;226;48.606;9.096;2022-11-04T19:34:38;9.30;90.90
480;DHT22;226;48.606;9.096;2022-11-04T19:37:06;9.70;91.00
480;DHT22;226;48.606;9.096;2022-11-04T19:39:35;9.40;91.50
480;DHT22;226;48.606;9.096;2022-11-04T19:42:04;10.20;91.90
480;DHT22;226;48.606;9.096;2022-11-04T19:44:50;9.00;92.20
480;DHT22;226;48.606;9.096;2022-11-04T19:47:18;9.50;92.70
480;DHT22;226;48.606;9.096;2022-11-04T19:49:46;9.90;93.00
480;DHT22;226;48.606;9.096;2022-11-04T19:52:14;9.50;93.20
480;DHT22;226;48.606;9.096;2022-11-04T19:54:42;9.20;92.30
480;DHT22;226;48.606;9.096;2022-11-04T19:57:11;8.40;91.80
480;DHT22;226;48.606;9.096;2022-11-04T19:59:39;9.70;92.20
480;DHT22;226;48.606;9.096;2022-11-04T20:02:08;9.80;91.90
480;DHT22;226;48.606;9.096;2022-11-04T20:04:36;9.40;90.80
480;DHT22;226;48.606;9.096;2022-11-04T20:07:04;9.50;89.90
480;DHT22;226;48.606;9.096;2022-11-04T20:09:32;10.20;90.00
480;DHT22;226;48.606;9.096;2022-11-04T20:12:00;9.80;90.30
480;DHT22;226;48.606;9.096;2022-11-04T20:14:47;10.20;89.10
480;DHT22;226;48.606;9.096;2022-11-04T20:17:15;10.00;90.40
480;DHT22;226;48.606;9.096;2022-11-04T20:19:43;10.80;90.50
480;DHT22;226;48.606;9.096;2022-11-04T20:22:11;9.50;90.30
480;DHT22;226;48.606;9.096;2022-11-04T20:24:39;9.60;90.10
480;DHT22;226;48.606;9.096;2022-11-04T20:27:07;10.20;88.40
480;DHT22;226;48.606;9.096;2022-11-04T20:29:40;10.20;87.40
480;DHT22;226;48.606;9.096;2022-11-04T20:32:10;9.70;87.70
480;DHT22;226;48.606;9.096;2022-11-04T20:34:38;9.70;96.20
480;DHT22;226;48.606;9.096;2022-11-04T20:37:06;10.30;87.00
480;DHT22;226;48.606;9.096;2022-11-04T20:39:35;10.50;86.00
480;DHT22;226;48.606;9.096;2022-11-04T20:42:03;9.60;86.40
480;DHT22;226;48.606;9.096;2022-11-04T20:44:31;9.50;86.80
480;DHT22;226;48.606;9.096;2022-11-04T20:46:59;9.60;87.60
480;DHT22;226;48.606;9.096;2022-11-04T20:49:29;10.00;87.00
480;DHT22;226;48.606;9.096;2022-11-04T20:51:57;10.50;87.80
480;DHT22;226;48.606;9.096;2022-11-04T20:54:25;9.70;87.40
480;DHT22;226;48.606;9.096;2022-11-04T20:56:53;10.30;85.90
480;DHT22;226;48.606;9.096;2022-11-04T20:59:21;10.00;86.20
480;DHT22;226;48.606;9.096;2022-11-04T21:01:49;10.40;85.80
480;DHT22;226;48.606;9.096;2022-11-04T21:04:19;9.60;87.60
480;DHT22;226;48.606;9.096;2022-11-04T21:06:49;9.70;87.30
480;DHT22;226;48.606;9.096;2022-11-04T21:09:19;9.70;97.30
480;DHT22;226;48.606;9.096;2022-11-04T21:11:48;9.60;86.90
480;DHT22;226;48.606;9.096;2022-11-04T21:14:17;9.50;87.00
480;DHT22;226;48.606;9.096;2022-11-04T21:16:46;9.60;88.90
480;DHT22;226;48.606;9.096;2022-11-04T21:19:14;10.50;88.60
480;DHT22;226;48.606;9.096;2022-11-04T21:21:43;9.50;97.80
480;DHT22;226;48.606;9.096;2022-11-04T21:24:14;9.50;89.10
480;DHT22;226;48.606;9.096;2022-11-04T21:26:43;9.90;89.10
480;DHT22;226;48.606;9.096;2022-11-04T21:29:14;9.50;89.50
480;DHT22;226;48.606;9.096;2022-11-04T21:31:43;10.10;89.30
480;DHT22;226;48.606;9.096;2022-11-04T21:34:11;9.40;90.40
480;DHT22;226;48.606;9.096;2022-11-04T21:36:39;10.50;90.30
480;DHT22;226;48.606;9.096;2022-11-04T21:39:08;9.30;90.20
480;DHT22;226;48.606;9.096;2022-11-04T21:41:40;9.70;90.00
480;DHT22;226;48.606;9.096;2022-11-04T21:44:11;9.40;90.10
480;DHT22;226;48.606;9.096;2022-11-04T21:46:39;10.40;90.10
480;DHT22;226;48.606;9.096;2022-11-04T21:49:12;10.10;90.00
480;DHT22;226;48.606;9.096;2022-11-04T21:51:40;8.60;87.30
480;DHT22;226;48.606;9.096;2022-11-04T21:54:09;9.30;90.60
480;DHT22;226;48.606;9.096;2022-11-04T21:56:37;9.70;91.30
480;DHT22;226;48.606;9.096;2022-11-04T21:59:09;9.70;91.60
480;DHT22;226;48.606;9.096;2022-11-04T22:01:43;10.00;91.30
480;DHT22;226;48.606;9.096;2022-11-04T22:04:12;10.10;91.20
480;DHT22;226;48.606;9.096;2022-11-04T22:06:41;9.80;91.60
480;DHT22;226;48.606;9.096;2022-11-04T22:09:09;10.10;90.80
480;DHT22;226;48.606;9.096;2022-11-04T22:11:38;9.90;90.90
480;DHT22;226;48.606;9.096;2022-11-04T22:14:09;9.50;90.30
480;DHT22;226;48.606;9.096;2022-11-04T22:16:38;10.70;90.30
480;DHT22;226;48.606;9.096;2022-11-04T22:19:09;10.20;90.10
480;DHT22;226;48.606;9.096;2022-11-04T22:21:40;10.70;90.30
480;DHT22;226;48.606;9.096;2022-11-04T22:24:09;9.50;90.10
480;DHT22;226;48.606;9.096;2022-11-04T22:26:38;10.30;90.00
480;DHT22;226;48.606;9.096;2022-11-04T22:29:09;10.20;89.10
480;DHT22;226;48.606;9.096;2022-11-04T22:31:39;10.40;88.10
480;DHT22;226;48.606;9.096;2022-11-04T22:34:08;9.40;89.60
480;DHT22;226;48.606;9.096;2022-11-04T22:36:36;9.30;89.60
480;DHT22;226;48.606;9.096;2022-11-04T22:39:05;9.70;90.20
480;DHT22;226;48.606;9.096;2022-11-04T22:41:39;9.80;89.70
480;DHT22;226;48.606;9.096;2022-11-04T22:44:08;9.20;91.00
480;DHT22;226;48.606;9.096;2022-11-04T22:46:36;9.70;91.20
480;DHT22;226;48.606;9.096;2022-11-04T22:49:06;9.50;91.60
480;DHT22;226;48.606;9.096;2022-11-04T22:51:34;9.90;92.30
480;DHT22;226;48.606;9.096;2022-11-04T22:54:02;9.00;92.10
480;DHT22;226;48.606;9.096;2022-11-04T22:56:34;9.00;92.20
480;DHT22;226;48.606;9.096;2022-11-04T22:59:02;9.40;92.90
480;DHT22;226;48.606;9.096;2022-11-04T23:01:32;10.10;92.40
480;DHT22;226;48.606;9.096;2022-11-04T23:04:00;8.90;92.60
480;DHT22;226;48.606;9.096;2022-11-04T23:06:28;9.20;92.70
480;DHT22;226;48.606;9.096;2022-11-04T23:08:56;9.20;92.50
480;DHT22;226;48.606;9.096;2022-11-04T23:11:27;9.20;92.30
480;DHT22;226;48.606;9.096;2022-11-04T23:14:15;8.90;92.90
480;DHT22;226;48.606;9.096;2022-11-04T23:17:12;9.80;93.40
480;DHT22;226;48.606;9.096;2022-11-04T23:19:58;9.20;92.90
480;DHT22;226;48.606;9.096;2022-11-04T23:22:26;9.20;92.40
480;DHT22;226;48.606;9.096;2022-11-04T23:25:11;9.00;92.20
480;DHT22;226;48.606;9.096;2022-11-04T23:27:42;9.40;92.40
480;DHT22;226;48.606;9.096;2022-11-04T23:30:30;9.40;93.00
480;DHT22;226;48.606;9.096;2022-11-04T23:33:01;9.60;92.20
480;DHT22;226;48.606;9.096;2022-11-04T23:35:31;9.10;91.80
480;DHT22;226;48.606;9.096;2022-11-04T23:38:17;10.20;91.60
480;DHT22;226;48.606;9.096;2022-11-04T23:40:46;9.80;90.80
480;DHT22;226;48.606;9.096;2022-11-04T23:43:28;8.90;98.60
480;DHT22;226;48.606;9.096;2022-11-04T23:45:56;9.30;89.90
480;DHT22;226;48.606;9.096;2022-11-04T23:48:43;9.70;89.40
480;DHT22;226;48.606;9.096;2022-11-04T23:51:28;9.00;90.50
480;DHT22;226;48.606;9.096;2022-11-04T23:54:14;8.50;92.60
480;DHT22;226;48.606;9.096;2022-11-04T23:57:00;9.50;91.90
480;DHT22;226;48.606;9.096;2022-11-04T23:59:46;9.10;91.30
